Lambertville, MI

8:09 PM EDT on October 20, 2014 (GMT -0400)
Lucas Co Rec Center | Change Station
CLOSE
Current Station
Personal Weather Station
Location: Maumee, OH
Elevation: 636 ft
Nearby Weather Stations

Elev 636 ft 41.59 °N, 83.65 °W | Updated 2 seconds ago

Mostly Cloudy
Mostly Cloudy
53.8 °F
Feels Like 53.8 °F
N
0.4
Wind Variable Wind from West
Gusts 0.7 mph

Today
High -- | Low -- °F
--% Chance of Precip.
Yesterday
High -- | Low -- °F
Precip. -- in
7:52 AM 6:45 PM
Waning Crescent, 8% visible
Pressure 29.85 in
Visibility 10.0 miles
Clouds Mostly Cloudy 1900 ft
Mostly Cloudy 7500 ft
Mostly Cloudy 9500 ft
Dew Point 50 °F
Humidity 86%
Rainfall 0.00 in
Snow Depth Not available.
UV 0 out of 12
Pollen .60 out of 12
Ozone Good
PM2.5 Moderate
Flu Activity Sporadic
METAR KDUH 202354Z AUTO 00000KT 10SM BKN019 BKN075 BKN095 12/09 A2985 RMK AO2

More Conditions Fewer Conditions

Pressure 29.85 in
Visibility 10.0 miles
Clouds Mostly Cloudy 1900 ft
Mostly Cloudy 7500 ft
Mostly Cloudy 9500 ft
Dew Point 50 °F
Humidity 86%
Rainfall 0.00 in
Snow Depth Not available.
UV 0 out of 12
Pollen .60 out of 12
Ozone Good
PM2.5 Moderate
Flu Activity Sporadic
METAR KDUH 202354Z AUTO 00000KT 10SM BKN019 BKN075 BKN095 12/09 A2985 RMK AO2

More Conditions Fewer Conditions

10-Day Weather Forecast

Almanac

Astronomy

Oct. 20, 2014 Rise Set
Actual Time 7:52 AM EDT 6:45 PM EDT
Civil Twilight 7:24 AM EDT 7:13 PM EDT
Nautical Twilight 6:51 AM EDT 7:46 PM EDT
Astronomical Twilight 6:19 AM EDT 8:18 PM EDT
Moon 4:37 AM EDT (10/20) 5:09 PM EDT (10/20)
Length of Visible Light 11h 49m
Length of Day
10h 53m
Tomorrow will be 2m 39s shorter.
Waning Crescent, 8% of the Moon is Illuminated
Today
Waning Crescent
Oct 23
New
Oct 30
First Quarter
Nov 6
Full
Nov 14
Last Quarter

Today's Extremes

State Highs State Lows

Community

WunderPhotos

Upload Photos

1,763,551 photos uploaded!

Nearby

Air Quality

  Air Quality AQ Index Pollutant
Yesterday Good
PM10
Yesterday Good
OZONE
Current Moderate
PM2.5
Current Good
OZONE
Monday Good
PM2.5
Tuesday Good
PM2.5
Wednesday Good
PM2.5
Thursday Good
PM2.5
Friday Good
PM2.5
Saturday Good
PM2.5

Snow Depth

Station Depth Elevation
No new snow has been reported.

Earthquake Activity

City Distance Mag. Time & Date
No recent earthquake activity has been reported nearby.
Minimum magnitude displayed is 2.5.

Coastal Water Temperatures

Place Temperature
Marblehead, OH 55.0 °F

Nearby Weather Stations